Skip Navigation LinksHome page > Weather > Current weather Skip Navigation Links

Current Weather

General Edward Lawrence Logan Intl, Boston

For information only: do not use for flight planning or navigation.
Latest weather
Observation time Sunday, August 1, 2021 4:54 AM EDT
Local time Sunday, August 1, 2021 6:04 AM EDT
Flight conditions Visual Meteorological Conditions
Winds
Wind speed calm
Visibility 10 mi.
Sky condition
Ceiling unlimited
Sky clear
Temperature 64°F
Dewpoint 52°F
Altimeter 29.93 in.Hg
Pressure change last 3 hours0.01 in.Hg
Pressure falling, then rising
Derived measurements
Relative humidity 65%
Density altitude 525 ft.
Sea-level pressure 29.93 in.Hg
Remarks
Automated weather observing station with precipitation discriminator.
METAR KBOS 010854Z 00000KT 10SM CLR 18/11 A2993 RMK AO2 SLP135 T01780111 55002

Settings

Location code

InnerDrive.Weather 4.0.6770.0 Release CLR 4.0.30319.42000
Copyright ©2018 Inner Drive Technology. All rights reserved. Portions Copyright ©1986-2018 David Braverman.

Find weather

Site navigation


Skip Navigation Links

Place info

Page info

PayPal - The safer, easier way to pay online!

Return home.

Copyright ©2021 Inner Drive Technology. Purveyors of fine, hand-crafted computer software. Page printed 2021-08-01T10:04:10 UTC.